createdAt,value
2024-02-29T00:02:22.590Z,98026.97
2024-02-29T00:04:49.765Z,98013.50
2024-02-29T00:07:18.318Z,98021.03
2024-02-29T00:09:45.517Z,98022.66
2024-02-29T00:12:12.736Z,98022.91
2024-02-29T00:14:40.047Z,98005.94
2024-02-29T00:17:07.262Z,98021.53
2024-02-29T00:19:34.546Z,98020.44
2024-02-29T00:22:01.765Z,97974.06
2024-02-29T00:24:30.338Z,98011.81
2024-02-29T00:26:57.542Z,98004.56
2024-02-29T00:29:24.729Z,98001.63
2024-02-29T00:31:52.004Z,97996.50
2024-02-29T00:34:19.283Z,98005.34
2024-02-29T00:36:46.550Z,98000.28
2024-02-29T00:39:15.339Z,97996.78
2024-02-29T00:41:44.215Z,97992.75
2024-02-29T00:44:11.412Z,97997.88
2024-02-29T00:46:38.617Z,97990.91
2024-02-29T00:49:06.171Z,97982.56
2024-02-29T00:51:33.721Z,97981.75
2024-02-29T00:54:00.879Z,97983.63
2024-02-29T00:56:28.090Z,97979.59
2024-02-29T00:58:56.633Z,97981.19
2024-02-29T01:01:23.960Z,97977.72
2024-02-29T01:03:51.230Z,97973.41
2024-02-29T01:06:18.565Z,97964.78
2024-02-29T01:08:45.735Z,97966.41
2024-02-29T01:11:13.159Z,97960.25
2024-02-29T01:13:40.377Z,97962.34
2024-02-29T01:16:08.987Z,97966.38
2024-02-29T01:18:36.248Z,97965.78
2024-02-29T01:21:03.727Z,97958.00
2024-02-29T01:23:30.899Z,97947.50
2024-02-29T01:25:58.066Z,97959.63
2024-02-29T01:28:25.243Z,97953.19
2024-02-29T01:30:52.422Z,97949.94
2024-02-29T01:33:20.997Z,97941.59
2024-02-29T01:35:48.241Z,97949.44
2024-02-29T01:38:15.430Z,97953.75
2024-02-29T01:40:45.494Z,97930.59
2024-02-29T01:43:12.821Z,97939.75
2024-02-29T01:45:40.091Z,97935.22
2024-02-29T01:48:09.158Z,97943.28
2024-02-29T01:50:39.325Z,97931.94
2024-02-29T01:53:06.784Z,97935.16
2024-02-29T01:55:34.007Z,97943.00
2024-02-29T01:58:02.395Z,97937.34
2024-02-29T02:00:29.601Z,97932.78
2024-02-29T02:03:17.375Z,97915.78
2024-02-29T02:05:46.169Z,97929.53
2024-02-29T02:08:14.265Z,97924.41
2024-02-29T02:10:41.424Z,97922.53
2024-02-29T02:13:08.584Z,97919.25
2024-02-29T02:15:35.908Z,97915.22
2024-02-29T02:18:03.167Z,97911.75
2024-02-29T02:20:31.680Z,97912.53
2024-02-29T02:22:58.867Z,97898.56
2024-02-29T02:25:26.063Z,97909.31
2024-02-29T02:27:53.279Z,97897.75
2024-02-29T02:30:20.430Z,97892.63
2024-02-29T02:32:47.693Z,97898.59
2024-02-29T02:35:14.885Z,97895.38
2024-02-29T02:37:43.454Z,97891.63
2024-02-29T02:40:11.446Z,97886.50
2024-02-29T02:42:38.810Z,97883.56
2024-02-29T02:45:07.038Z,97881.13
2024-02-29T02:47:34.285Z,97887.31
2024-02-29T02:50:01.625Z,97877.63
2024-02-29T02:52:28.782Z,97875.75
2024-02-29T02:54:57.331Z,97876.00
2024-02-29T02:57:24.512Z,97870.91
2024-02-29T02:59:51.637Z,97872.50
2024-02-29T03:02:18.915Z,97861.72
2024-02-29T03:04:46.124Z,97867.16
2024-02-29T03:07:13.332Z,97860.69
2024-02-29T03:09:40.723Z,97854.47
2024-02-29T03:12:10.040Z,97858.25
2024-02-29T03:14:37.181Z,97848.03
2024-02-29T03:17:04.364Z,97846.41
2024-02-29T03:19:31.592Z,97853.66
2024-02-29T03:21:58.776Z,97852.59
2024-02-29T03:24:26.017Z,97856.91
2024-02-29T03:26:53.133Z,97856.66
2024-02-29T03:29:22.083Z,97850.72
2024-02-29T03:31:49.293Z,97848.66
2024-02-29T03:34:16.845Z,97830.13
2024-02-29T03:36:44.170Z,97832.09
2024-02-29T03:39:11.384Z,97839.13
2024-02-29T03:41:38.540Z,97838.31
2024-02-29T03:44:05.817Z,97830.81
2024-02-29T03:46:34.390Z,97837.25
2024-02-29T03:49:01.597Z,97834.84
2024-02-29T03:51:28.795Z,97833.78
2024-02-29T03:53:55.973Z,97835.13
2024-02-29T03:56:23.323Z,97830.81
2024-02-29T03:58:50.500Z,97825.97
2024-02-29T04:01:17.853Z,97815.47
2024-02-29T04:03:46.417Z,97819.50
2024-02-29T04:06:13.602Z,97815.19
2024-02-29T04:08:40.849Z,97811.69
2024-02-29T04:11:08.218Z,97810.34
2024-02-29T04:13:35.371Z,97800.41
2024-02-29T04:16:02.622Z,97808.19
2024-02-29T04:18:29.830Z,97808.19
2024-02-29T04:20:58.381Z,97803.63
2024-02-29T04:23:25.586Z,97811.97
2024-02-29T04:25:52.701Z,97815.19
2024-02-29T04:28:19.910Z,97818.41
2024-02-29T04:30:47.151Z,97806.31
2024-02-29T04:33:14.454Z,97804.16
2024-02-29T04:35:41.665Z,97806.03
2024-02-29T04:38:10.183Z,97803.06
2024-02-29T04:40:37.350Z,97800.63
2024-02-29T04:43:04.936Z,97803.03
2024-02-29T04:45:32.185Z,97799.81
2024-02-29T04:47:59.397Z,97780.16
2024-02-29T04:50:26.582Z,97797.13
2024-02-29T04:52:53.776Z,97796.03
2024-02-29T04:55:22.288Z,97787.69
2024-02-29T04:57:49.506Z,97787.97
2024-02-29T05:00:17.627Z,97796.84
2024-02-29T05:02:44.776Z,97797.88
2024-02-29T05:05:12.978Z,97791.13
2024-02-29T05:07:40.317Z,97791.69
2024-02-29T05:10:08.654Z,97789.53
2024-02-29T05:12:37.458Z,97798.41
2024-02-29T05:15:05.577Z,97789.53
2024-02-29T05:17:32.765Z,97780.66
2024-02-29T05:19:59.946Z,97782.00
2024-02-29T05:22:27.181Z,97776.09
2024-02-29T05:24:54.403Z,97781.22
2024-02-29T05:27:21.614Z,97778.53
2024-02-29T05:29:50.588Z,97771.00
2024-02-29T05:32:18.805Z,97760.75
2024-02-29T05:34:46.428Z,97775.00
2024-02-29T05:37:13.800Z,97777.16
2024-02-29T05:39:41.962Z,97777.44
2024-02-29T05:42:09.192Z,97772.31
2024-02-29T05:44:36.373Z,97774.47
2024-02-29T05:47:05.051Z,97770.41
2024-02-29T05:49:32.235Z,97770.69
2024-02-29T05:51:59.585Z,97773.66
2024-02-29T05:54:26.836Z,97776.88
2024-02-29T05:56:54.927Z,97758.31
2024-02-29T05:59:22.172Z,97762.34
2024-02-29T06:01:49.554Z,97755.34
2024-02-29T06:04:18.229Z,97753.72
2024-02-29T06:06:45.552Z,97764.22
2024-02-29T06:09:12.729Z,97764.47
2024-02-29T06:11:39.905Z,97761.78
2024-02-29T06:14:07.156Z,97768.22
2024-02-29T06:16:34.407Z,97769.59
2024-02-29T06:19:01.764Z,97764.50
2024-02-29T06:21:30.306Z,97773.91
2024-02-29T06:23:57.423Z,97772.03
2024-02-29T06:26:24.590Z,97772.56
2024-02-29T06:28:51.779Z,97774.97
2024-02-29T06:31:19.320Z,97760.72
2024-02-29T06:33:46.552Z,97772.03
2024-02-29T06:36:13.814Z,97762.59
2024-02-29T06:38:42.395Z,97766.38
2024-02-29T06:41:10.185Z,97774.97
2024-02-29T06:43:37.409Z,97773.06
2024-02-29T06:46:04.914Z,97781.66
2024-02-29T06:48:32.309Z,97779.25
2024-02-29T06:50:59.510Z,97776.03
2024-02-29T06:53:26.666Z,97770.66
2024-02-29T06:55:55.211Z,97766.06
2024-02-29T06:58:22.593Z,97768.47
2024-02-29T07:00:50.059Z,97765.00
2024-02-29T07:03:17.339Z,97757.47
2024-02-29T07:05:45.009Z,97765.81
2024-02-29T07:08:12.163Z,97765.25
2024-02-29T07:10:39.315Z,97765.00
2024-02-29T07:13:07.904Z,97769.28
2024-02-29T07:15:35.264Z,97762.84
2024-02-29T07:18:02.692Z,97761.22
2024-02-29T07:20:29.968Z,97758.03
2024-02-29T07:22:57.621Z,97745.91
2024-02-29T07:25:24.830Z,97759.91
2024-02-29T07:27:52.090Z,97745.41
2024-02-29T07:30:20.917Z,97752.09
2024-02-29T07:32:48.271Z,97746.19
2024-02-29T07:35:15.729Z,97753.16
2024-02-29T07:37:42.900Z,97735.13
2024-02-29T07:40:10.495Z,97751.03
2024-02-29T07:42:38.280Z,97746.72
2024-02-29T07:45:07.516Z,97744.03
2024-02-29T07:47:36.256Z,97745.66
2024-02-29T07:50:03.827Z,97746.97
2024-02-29T07:52:30.987Z,97748.78
2024-02-29T07:54:58.183Z,97741.81
2024-02-29T07:57:25.371Z,97733.75
2024-02-29T07:59:52.575Z,97739.94
2024-02-29T08:02:21.186Z,97735.91
2024-02-29T08:04:51.294Z,97725.44
2024-02-29T08:07:18.642Z,97728.13
2024-02-29T08:09:45.974Z,97721.44
2024-02-29T08:12:13.217Z,97725.22
2024-02-29T08:14:40.352Z,97720.09
2024-02-29T08:17:07.478Z,97724.66
2024-02-29T08:19:34.660Z,97721.72
2024-02-29T08:22:03.518Z,97717.97
2024-02-29T08:24:31.148Z,97713.66
2024-02-29T08:26:58.347Z,97701.78
2024-02-29T08:29:25.556Z,97716.06
2024-02-29T08:31:52.755Z,97709.91
2024-02-29T08:34:20.076Z,97714.47
2024-02-29T08:36:47.260Z,97719.00
2024-02-29T08:39:16.256Z,97698.28
2024-02-29T08:41:43.463Z,97697.75
2024-02-29T08:44:10.663Z,97699.63
2024-02-29T08:46:37.811Z,97697.75
2024-02-29T08:49:05.091Z,97691.84
2024-02-29T08:51:32.271Z,97687.53
2024-02-29T08:53:59.461Z,97683.25
2024-02-29T08:56:28.279Z,97673.81
2024-02-29T08:58:55.702Z,97659.31
2024-02-29T09:01:22.957Z,97669.56
2024-02-29T09:03:50.333Z,97668.47
2024-02-29T09:06:17.496Z,97665.78
2024-02-29T09:08:44.647Z,97669.28
2024-02-29T09:11:11.912Z,97660.13
2024-02-29T09:13:40.527Z,97656.91
2024-02-29T09:16:07.909Z,97657.22
2024-02-29T09:18:35.229Z,97649.41
2024-02-29T09:21:02.414Z,97647.00
2024-02-29T09:23:30.183Z,97649.69
2024-02-29T09:25:57.391Z,97651.53
2024-02-29T09:28:24.582Z,97650.47
2024-02-29T09:30:53.243Z,97649.16
2024-02-29T09:40:46.413Z,97626.56
2024-02-29T09:43:20.123Z,97630.88
2024-02-29T09:45:49.376Z,97618.25
2024-02-29T09:48:18.094Z,97617.69
2024-02-29T09:50:45.256Z,97618.50
2024-02-29T09:53:16.102Z,97607.75
2024-02-29T09:55:44.088Z,97610.97
2024-02-29T09:58:11.893Z,97604.00
2024-02-29T10:00:39.212Z,97607.75
2024-02-29T10:03:07.719Z,97598.38
2024-02-29T10:05:36.232Z,97608.56
2024-02-29T10:08:06.754Z,97602.41
2024-02-29T10:10:34.237Z,97596.75
2024-02-29T10:13:01.536Z,97588.97
2024-02-29T10:15:29.618Z,97572.56
2024-02-29T10:20:23.857Z,97581.72
2024-02-29T10:22:52.444Z,97591.38
2024-02-29T10:25:20.771Z,97561.00
2024-02-29T10:27:48.578Z,97579.03
2024-02-29T10:30:17.336Z,97576.88
2024-02-29T10:32:45.803Z,97581.44
2024-02-29T10:35:19.868Z,97576.34
2024-02-29T10:37:48.386Z,97580.91
2024-02-29T10:40:17.131Z,97546.50
2024-02-29T10:42:44.500Z,97573.09
2024-02-29T10:45:13.696Z,97560.75
2024-02-29T10:47:46.665Z,97550.00
2024-02-29T10:50:18.751Z,97552.94
2024-02-29T10:52:49.665Z,97549.47
2024-02-29T10:55:23.873Z,97552.13
2024-02-29T10:57:54.458Z,97546.22
2024-02-29T11:00:21.692Z,97550.81
2024-02-29T11:02:49.423Z,97549.47
2024-02-29T11:05:17.797Z,97545.72
2024-02-29T11:07:45.641Z,97534.97
2024-02-29T11:10:13.553Z,97535.50
2024-02-29T11:12:42.156Z,97521.53
2024-02-29T11:15:11.678Z,97520.19
2024-02-29T11:17:39.339Z,97515.63
2024-02-29T11:20:07.140Z,97511.34
2024-02-29T11:22:35.915Z,97503.28
2024-02-29T11:25:06.800Z,97513.19
2024-02-29T11:27:34.908Z,97504.34
2024-02-29T11:30:04.904Z,97503.81
2024-02-29T11:32:32.213Z,97493.06
2024-02-29T11:34:59.498Z,97493.06
2024-02-29T11:37:32.464Z,97487.97
2024-02-29T11:40:02.058Z,97482.59
2024-02-29T11:42:29.345Z,97484.75
2024-02-29T11:44:56.584Z,97481.25
2024-02-29T11:47:25.157Z,97475.06
2024-02-29T11:49:52.354Z,97475.88
2024-02-29T11:52:19.800Z,97458.97
2024-02-29T11:54:47.383Z,97462.44
2024-02-29T11:57:14.631Z,97457.59
2024-02-29T11:59:41.804Z,97455.47
2024-02-29T12:02:09.527Z,97445.28
2024-02-29T12:04:38.079Z,97429.97
2024-02-29T12:07:07.166Z,97446.34
2024-02-29T12:09:34.580Z,97438.56
2024-02-29T12:12:02.094Z,97439.59
2024-02-29T12:14:29.595Z,97404.75
2024-02-29T12:16:56.915Z,97424.03
2024-02-29T12:19:24.178Z,97427.81
2024-02-29T12:21:55.581Z,97418.66
2024-02-29T12:24:23.183Z,97417.06
2024-02-29T12:26:50.753Z,97416.28
2024-02-29T12:29:18.022Z,97406.84
2024-02-29T12:31:45.664Z,97412.50
2024-02-29T12:34:12.903Z,97401.22
2024-02-29T12:36:40.217Z,97402.03
2024-02-29T12:39:08.800Z,97398.28
2024-02-29T12:41:38.189Z,97391.03
2024-02-29T12:44:05.664Z,97396.94
2024-02-29T12:46:32.940Z,97386.44
2024-02-29T12:49:00.138Z,97380.00
2024-02-29T12:51:27.291Z,97385.38
2024-02-29T12:53:54.522Z,97360.94
2024-02-29T12:56:23.349Z,97356.94
2024-02-29T12:58:50.515Z,97350.47
2024-02-29T13:01:17.938Z,97360.13
2024-02-29T13:03:46.791Z,97356.91
2024-02-29T13:06:14.067Z,97344.81
2024-02-29T13:08:41.284Z,97351.28
2024-02-29T13:11:08.491Z,97343.75
2024-02-29T13:13:37.040Z,97331.16
2024-02-29T13:16:05.033Z,97330.59
2024-02-29T13:18:32.367Z,97327.13
2024-02-29T13:21:01.311Z,97324.97
2024-02-29T13:23:29.641Z,97310.47
2024-02-29T13:25:57.017Z,97314.75
2024-02-29T13:28:24.482Z,97313.94
2024-02-29T13:30:53.098Z,97310.47
2024-02-29T13:33:20.342Z,97309.38
2024-02-29T13:35:47.622Z,97305.38
2024-02-29T13:38:14.913Z,97294.09
2024-02-29T13:40:42.080Z,97290.34
2024-02-29T13:43:09.342Z,97287.13
2024-02-29T13:45:37.722Z,97289.25
2024-02-29T13:48:07.126Z,97279.88
2024-02-29T13:50:34.373Z,97273.97
2024-02-29T13:53:01.584Z,97267.78
2024-02-29T13:55:28.840Z,97269.66
2024-02-29T13:57:56.382Z,97255.44
2024-02-29T14:00:23.630Z,97255.97
2024-02-29T14:02:50.925Z,97254.06
2024-02-29T14:05:19.465Z,97246.28
2024-02-29T14:07:48.983Z,97246.81
2024-02-29T14:10:16.823Z,97235.56
2024-02-29T14:12:44.156Z,97231.50
2024-02-29T14:15:11.392Z,97228.03
2024-02-29T14:17:39.559Z,97222.41
2024-02-29T14:20:07.824Z,97215.69
2024-02-29T14:22:36.419Z,97205.22
2024-02-29T14:25:04.169Z,97205.50
2024-02-29T14:27:31.570Z,97198.50
2024-02-29T14:29:58.762Z,97204.94
2024-02-29T14:32:25.957Z,97179.22
2024-02-29T14:34:53.148Z,97203.63
2024-02-29T14:37:20.601Z,97170.38
2024-02-29T14:39:49.286Z,97182.44
2024-02-29T14:42:16.525Z,97180.81
2024-02-29T14:44:43.725Z,97178.94
2024-02-29T14:47:10.933Z,97183.50
2024-02-29T14:49:38.182Z,97173.56
2024-02-29T14:52:05.409Z,97178.38
2024-02-29T14:54:32.684Z,97171.66
2024-02-29T14:57:01.711Z,97167.91
2024-02-29T14:59:28.963Z,97175.94
2024-02-29T15:01:56.330Z,97161.72
2024-02-29T15:04:23.628Z,97153.69
2024-02-29T15:06:51.025Z,97157.94
2024-02-29T15:09:18.356Z,97148.50
2024-02-29T15:11:45.657Z,97153.34
2024-02-29T15:14:14.330Z,97148.50
2024-02-29T15:16:41.565Z,97138.81
2024-02-29T15:19:08.835Z,97129.69
2024-02-29T15:21:36.109Z,97129.13
2024-02-29T15:24:03.453Z,97131.59
2024-02-29T15:26:30.645Z,97124.06
2024-02-29T15:28:57.819Z,97119.47
2024-02-29T15:31:26.509Z,97117.38
2024-02-29T15:33:53.685Z,97122.75
2024-02-29T15:36:20.998Z,97113.34
2024-02-29T15:38:48.201Z,97117.09
2024-02-29T15:41:15.500Z,97107.97
2024-02-29T15:43:42.712Z,97106.66
2024-02-29T15:46:10.040Z,97105.81
2024-02-29T15:48:38.629Z,97099.91
2024-02-29T15:51:06.020Z,97092.63
2024-02-29T15:53:33.527Z,97092.63
2024-02-29T15:56:02.660Z,97086.47
2024-02-29T15:58:32.238Z,97090.47
2024-02-29T16:00:59.508Z,97080.03
2024-02-29T16:03:26.714Z,97073.31
2024-02-29T16:05:55.289Z,97083.25
2024-02-29T16:08:22.477Z,97088.38
2024-02-29T16:10:49.709Z,97078.69
2024-02-29T16:13:17.445Z,97065.00
2024-02-29T16:15:44.820Z,97070.81
2024-02-29T16:18:12.082Z,97064.41
2024-02-29T16:20:39.277Z,97062.06
2024-02-29T16:23:07.792Z,97057.31
2024-02-29T16:25:35.161Z,97056.63
2024-02-29T16:28:02.844Z,97052.97
2024-02-29T16:30:30.033Z,97054.28
2024-02-29T16:32:57.501Z,97055.06
2024-02-29T16:35:25.066Z,97048.44
2024-02-29T16:37:52.390Z,97040.47
2024-02-29T16:40:20.996Z,97033.50
2024-02-29T16:42:48.297Z,97032.91
2024-02-29T16:45:15.599Z,97043.97
2024-02-29T16:47:43.402Z,97037.78
2024-02-29T16:50:10.826Z,97044.63
2024-02-29T16:52:38.044Z,97036.31
2024-02-29T16:55:05.729Z,97039.38
2024-02-29T16:57:34.594Z,97031.44
2024-02-29T17:00:01.814Z,97027.16
2024-02-29T17:02:28.988Z,97031.78
2024-02-29T17:04:56.250Z,97022.97
2024-02-29T17:07:23.575Z,97027.28
2024-02-29T17:09:50.946Z,97019.03
2024-02-29T17:12:18.237Z,97015.38
2024-02-29T17:14:46.798Z,97009.50
2024-02-29T17:17:14.109Z,97018.16
2024-02-29T17:19:41.349Z,97015.53
2024-02-29T17:22:08.592Z,97010.16
2024-02-29T17:24:35.851Z,97009.19
2024-02-29T17:27:03.145Z,97018.63
2024-02-29T17:29:30.383Z,97007.94
2024-02-29T17:31:58.957Z,97011.69
2024-02-29T17:34:26.240Z,97011.19
2024-02-29T17:36:53.526Z,97000.44
2024-02-29T17:39:20.738Z,96996.34
2024-02-29T17:41:47.958Z,96995.84
2024-02-29T17:44:15.149Z,96990.47
2024-02-29T17:46:43.257Z,96986.44
2024-02-29T17:49:11.974Z,96975.72
2024-02-29T17:51:44.085Z,96981.09
2024-02-29T17:54:11.346Z,96957.81
2024-02-29T17:56:38.790Z,96976.88
2024-02-29T17:59:05.983Z,96969.38
2024-02-29T18:01:33.275Z,96969.13
2024-02-29T18:04:00.544Z,96963.56
2024-02-29T18:06:29.100Z,96964.66
2024-02-29T18:08:56.293Z,96964.66
2024-02-29T18:11:23.523Z,96949.91
2024-02-29T18:13:50.843Z,96948.03
2024-02-29T18:16:18.048Z,96949.13
2024-02-29T18:18:45.349Z,96947.50
2024-02-29T18:21:12.558Z,96941.84
2024-02-29T18:23:41.122Z,96936.53
2024-02-29T18:26:08.549Z,96939.81
2024-02-29T18:28:35.761Z,96939.28
2024-02-29T18:31:03.006Z,96934.97
2024-02-29T18:33:30.272Z,96939.84
2024-02-29T18:35:57.593Z,96913.31
2024-02-29T18:38:24.764Z,96931.78
2024-02-29T18:40:53.335Z,96928.03
2024-02-29T18:43:20.634Z,96921.28
2024-02-29T18:45:57.055Z,96921.00
2024-02-29T18:48:30.113Z,96912.97
2024-02-29T18:50:57.263Z,96911.03
2024-02-29T18:53:24.441Z,96901.94
2024-02-29T18:55:52.993Z,96904.34
2024-02-29T18:58:20.241Z,96901.16
2024-02-29T19:00:47.570Z,96897.66
2024-02-29T19:03:14.832Z,96900.66
2024-02-29T19:05:42.051Z,96901.72
2024-02-29T19:08:09.230Z,96886.47
2024-02-29T19:10:36.459Z,96896.09
2024-02-29T19:13:05.149Z,96891.84
2024-02-29T19:15:32.378Z,96892.63
2024-02-29T19:17:59.697Z,96884.34
2024-02-29T19:20:26.917Z,96875.78
2024-02-29T19:22:54.119Z,96885.72
2024-02-29T19:25:21.357Z,96885.72
2024-02-29T19:27:48.615Z,96874.97
2024-02-29T19:30:19.424Z,96886.81
2024-02-29T19:32:47.330Z,96880.63
2024-02-29T19:35:14.737Z,96874.19
2024-02-29T19:37:41.939Z,96863.50
2024-02-29T19:40:09.837Z,96862.91
2024-02-29T19:42:37.047Z,96866.41
2024-02-29T19:45:05.090Z,96864.22
2024-02-29T19:47:33.753Z,96854.56
2024-02-29T19:50:00.961Z,96855.06
2024-02-29T19:52:28.121Z,96849.19
2024-02-29T19:54:55.354Z,96849.19
2024-02-29T19:57:22.625Z,96851.06
2024-02-29T19:59:49.835Z,96849.22
2024-02-29T20:02:17.023Z,96841.44
2024-02-29T20:04:45.680Z,96843.34
2024-02-29T20:09:40.085Z,96833.16
2024-02-29T20:12:07.778Z,96834.25
2024-02-29T20:14:34.964Z,96833.16
2024-02-29T20:17:02.196Z,96836.94
2024-02-29T20:19:30.928Z,96833.00
2024-02-29T20:21:59.769Z,96838.06
2024-02-29T20:24:26.985Z,96834.56
2024-02-29T20:26:54.193Z,96838.06
2024-02-29T20:29:21.411Z,96834.06
2024-02-29T20:31:48.921Z,96824.41
2024-02-29T20:34:16.177Z,96818.75
2024-02-29T20:36:43.471Z,96815.53
2024-02-29T20:39:12.065Z,96825.13
2024-02-29T20:41:39.250Z,96824.06
2024-02-29T20:44:06.443Z,96820.28
2024-02-29T20:46:33.754Z,96813.09
2024-02-29T20:49:01.031Z,96818.47
2024-02-29T20:51:28.244Z,96814.72
2024-02-29T20:53:55.458Z,96806.34
2024-02-29T20:56:24.011Z,96806.34
2024-02-29T20:58:51.224Z,96813.09
2024-02-29T21:01:18.560Z,96809.03
2024-02-29T21:03:45.815Z,96804.25
2024-02-29T21:06:13.202Z,96801.56
2024-02-29T21:08:40.612Z,96798.38
2024-02-29T21:11:07.787Z,96798.38
2024-02-29T21:13:36.389Z,96799.72
2024-02-29T21:16:04.198Z,96802.97
2024-02-29T21:18:31.534Z,96799.56
2024-02-29T21:20:58.760Z,96796.59
2024-02-29T21:23:26.039Z,96792.81
2024-02-29T21:25:53.244Z,96792.28
2024-02-29T21:28:20.613Z,96792.00
2024-02-29T21:30:49.375Z,96792.00
2024-02-29T21:33:16.911Z,96790.13
2024-02-29T21:35:44.304Z,96792.53
2024-02-29T21:38:11.495Z,96788.78
2024-02-29T21:40:38.721Z,96781.50
2024-02-29T21:43:05.985Z,96782.81
2024-02-29T21:45:33.200Z,96784.44
2024-02-29T21:48:01.778Z,96781.22
2024-02-29T21:50:29.004Z,96769.75
2024-02-29T21:52:56.250Z,96778.81
2024-02-29T21:55:23.490Z,96771.03
2024-02-29T21:57:50.701Z,96764.59
2024-02-29T22:00:18.285Z,96761.41
2024-02-29T22:02:45.439Z,96763.00
2024-02-29T22:05:14.356Z,96762.47
2024-02-29T22:07:41.746Z,96753.34
2024-02-29T22:10:09.157Z,96757.38
2024-02-29T22:12:37.645Z,96754.19
2024-02-29T22:15:05.937Z,96749.69
2024-02-29T22:17:33.137Z,96756.72
2024-02-29T22:20:00.392Z,96742.47
2024-02-29T22:22:29.160Z,96753.81
2024-02-29T22:24:57.291Z,96754.03
2024-02-29T22:27:24.541Z,96749.69
2024-02-29T22:29:51.728Z,96745.91
2024-02-29T22:32:18.892Z,96738.97
2024-02-29T22:34:46.103Z,96730.44
2024-02-29T22:37:14.903Z,96742.66
2024-02-29T22:39:44.491Z,96752.03
2024-02-29T22:42:11.670Z,96755.81
2024-02-29T22:44:38.881Z,96745.34
2024-02-29T22:47:06.361Z,96737.28
2024-02-29T22:49:33.630Z,96741.06
2024-02-29T22:52:00.884Z,96740.25
2024-02-29T22:54:28.131Z,96745.91
2024-02-29T22:56:56.708Z,96742.16
2024-02-29T22:59:23.893Z,96743.22
2024-02-29T23:01:51.161Z,96739.22
2024-02-29T23:04:18.578Z,96736.28
2024-02-29T23:06:46.391Z,96721.34
2024-02-29T23:09:13.811Z,96719.41
2024-02-29T23:11:41.329Z,96713.88
2024-02-29T23:14:09.967Z,96729.66
2024-02-29T23:16:37.199Z,96721.09
2024-02-29T23:19:04.589Z,96726.97
2024-02-29T23:21:31.934Z,96714.88
2024-02-29T23:23:59.124Z,96713.81
2024-02-29T23:26:26.305Z,96707.66
2024-02-29T23:28:53.616Z,96702.81
2024-02-29T23:31:22.191Z,96703.09
2024-02-29T23:33:49.486Z,96688.59
2024-02-29T23:36:16.851Z,96692.84
2024-02-29T23:38:44.046Z,96685.03
2024-02-29T23:41:11.277Z,96682.88
2024-02-29T23:43:38.478Z,96680.75
2024-02-29T23:46:05.746Z,96678.66
2024-02-29T23:48:34.299Z,96687.22
2024-02-29T23:51:01.501Z,96694.25
2024-02-29T23:53:28.680Z,96682.75
2024-02-29T23:55:55.858Z,96686.47
2024-02-29T23:58:23.089Z,96684.56
